sensor_id;sensor_type;location;lat;lon;timestamp;P1;durP1;ratioP1;P2;durP2;ratioP2
38653;SDS011;24413;52.450;20.706;2023-11-21T00:00:51;25.13;;;17.30;;
38653;SDS011;24413;52.450;20.706;2023-11-21T00:03:16;26.45;;;18.52;;
38653;SDS011;24413;52.450;20.706;2023-11-21T00:05:42;24.80;;;16.85;;
38653;SDS011;24413;52.450;20.706;2023-11-21T00:08:07;22.40;;;16.90;;
38653;SDS011;24413;52.450;20.706;2023-11-21T00:10:33;22.20;;;15.75;;
38653;SDS011;24413;52.450;20.706;2023-11-21T00:12:59;22.70;;;15.88;;
38653;SDS011;24413;52.450;20.706;2023-11-21T00:15:27;26.52;;;18.05;;
38653;SDS011;24413;52.450;20.706;2023-11-21T00:17:53;20.88;;;16.75;;
38653;SDS011;24413;52.450;20.706;2023-11-21T00:20:18;22.60;;;16.40;;
38653;SDS011;24413;52.450;20.706;2023-11-21T00:22:43;21.92;;;16.13;;
38653;SDS011;24413;52.450;20.706;2023-11-21T00:25:09;20.33;;;16.50;;
38653;SDS011;24413;52.450;20.706;2023-11-21T00:27:35;25.23;;;17.73;;
38653;SDS011;24413;52.450;20.706;2023-11-21T00:30:01;22.48;;;17.27;;
38653;SDS011;24413;52.450;20.706;2023-11-21T00:32:29;25.50;;;17.90;;
38653;SDS011;24413;52.450;20.706;2023-11-21T00:34:54;23.50;;;16.58;;
38653;SDS011;24413;52.450;20.706;2023-11-21T00:37:20;28.30;;;18.27;;
38653;SDS011;24413;52.450;20.706;2023-11-21T00:39:45;22.98;;;17.33;;
38653;SDS011;24413;52.450;20.706;2023-11-21T00:42:11;24.35;;;18.10;;
38653;SDS011;24413;52.450;20.706;2023-11-21T00:44:37;25.52;;;19.05;;
38653;SDS011;24413;52.450;20.706;2023-11-21T00:47:04;24.50;;;17.73;;
38653;SDS011;24413;52.450;20.706;2023-11-21T00:49:29;24.27;;;17.70;;
38653;SDS011;24413;52.450;20.706;2023-11-21T00:51:54;24.27;;;17.30;;
38653;SDS011;24413;52.450;20.706;2023-11-21T00:54:20;24.65;;;17.00;;
38653;SDS011;24413;52.450;20.706;2023-11-21T00:56:45;24.02;;;17.42;;
38653;SDS011;24413;52.450;20.706;2023-11-21T00:59:13;27.17;;;18.15;;
38653;SDS011;24413;52.450;20.706;2023-11-21T01:01:38;23.77;;;17.23;;
38653;SDS011;24413;52.450;20.706;2023-11-21T01:04:04;25.95;;;18.02;;
38653;SDS011;24413;52.450;20.706;2023-11-21T01:06:31;21.48;;;16.23;;
38653;SDS011;24413;52.450;20.706;2023-11-21T01:08:57;26.25;;;17.65;;
38653;SDS011;24413;52.450;20.706;2023-11-21T01:11:22;24.58;;;17.52;;
38653;SDS011;24413;52.450;20.706;2023-11-21T01:13:48;26.13;;;19.35;;
38653;SDS011;24413;52.450;20.706;2023-11-21T01:16:13;25.23;;;18.10;;
38653;SDS011;24413;52.450;20.706;2023-11-21T01:18:39;27.30;;;20.38;;
38653;SDS011;24413;52.450;20.706;2023-11-21T01:21:04;27.27;;;18.85;;
38653;SDS011;24413;52.450;20.706;2023-11-21T01:23:30;35.92;;;18.83;;
38653;SDS011;24413;52.450;20.706;2023-11-21T01:25:56;26.90;;;19.00;;
38653;SDS011;24413;52.450;20.706;2023-11-21T01:28:22;30.65;;;21.75;;
38653;SDS011;24413;52.450;20.706;2023-11-21T01:30:48;26.75;;;21.13;;
38653;SDS011;24413;52.450;20.706;2023-11-21T01:33:13;30.83;;;21.10;;
38653;SDS011;24413;52.450;20.706;2023-11-21T01:35:40;25.73;;;19.55;;
38653;SDS011;24413;52.450;20.706;2023-11-21T01:38:06;30.67;;;19.80;;
38653;SDS011;24413;52.450;20.706;2023-11-21T01:40:33;28.52;;;19.98;;
38653;SDS011;24413;52.450;20.706;2023-11-21T01:42:58;29.77;;;20.08;;
38653;SDS011;24413;52.450;20.706;2023-11-21T01:45:24;27.50;;;19.88;;
38653;SDS011;24413;52.450;20.706;2023-11-21T01:47:51;29.10;;;19.40;;
38653;SDS011;24413;52.450;20.706;2023-11-21T01:50:16;26.33;;;19.38;;
38653;SDS011;24413;52.450;20.706;2023-11-21T01:52:43;26.63;;;19.63;;
38653;SDS011;24413;52.450;20.706;2023-11-21T01:55:10;29.98;;;19.92;;
38653;SDS011;24413;52.450;20.706;2023-11-21T01:57:37;32.25;;;20.40;;
38653;SDS011;24413;52.450;20.706;2023-11-21T02:00:02;33.63;;;20.15;;
38653;SDS011;24413;52.450;20.706;2023-11-21T02:02:43;28.83;;;20.85;;
38653;SDS011;24413;52.450;20.706;2023-11-21T02:05:10;25.83;;;20.05;;
38653;SDS011;24413;52.450;20.706;2023-11-21T02:07:37;27.00;;;19.23;;
38653;SDS011;24413;52.450;20.706;2023-11-21T02:10:03;30.30;;;19.77;;
38653;SDS011;24413;52.450;20.706;2023-11-21T02:12:29;32.33;;;20.48;;
38653;SDS011;24413;52.450;20.706;2023-11-21T02:14:55;30.83;;;19.63;;
38653;SDS011;24413;52.450;20.706;2023-11-21T02:17:20;32.42;;;21.55;;
38653;SDS011;24413;52.450;20.706;2023-11-21T02:19:46;34.13;;;21.15;;
38653;SDS011;24413;52.450;20.706;2023-11-21T02:22:12;28.52;;;21.10;;
38653;SDS011;24413;52.450;20.706;2023-11-21T02:24:40;30.10;;;21.15;;
38653;SDS011;24413;52.450;20.706;2023-11-21T02:27:07;29.50;;;20.13;;
38653;SDS011;24413;52.450;20.706;2023-11-21T02:29:32;34.33;;;20.95;;
38653;SDS011;24413;52.450;20.706;2023-11-21T02:31:58;30.55;;;20.60;;
38653;SDS011;24413;52.450;20.706;2023-11-21T02:34:24;29.77;;;21.38;;
38653;SDS011;24413;52.450;20.706;2023-11-21T02:36:50;33.50;;;21.10;;
38653;SDS011;24413;52.450;20.706;2023-11-21T02:39:16;29.00;;;21.20;;
38653;SDS011;24413;52.450;20.706;2023-11-21T02:41:42;33.10;;;21.65;;
38653;SDS011;24413;52.450;20.706;2023-11-21T02:44:08;32.05;;;20.85;;
38653;SDS011;24413;52.450;20.706;2023-11-21T02:46:35;29.95;;;21.17;;
38653;SDS011;24413;52.450;20.706;2023-11-21T02:49:03;31.10;;;21.35;;
38653;SDS011;24413;52.450;20.706;2023-11-21T02:51:31;28.10;;;20.65;;
38653;SDS011;24413;52.450;20.706;2023-11-21T02:53:56;27.23;;;20.67;;
38653;SDS011;24413;52.450;20.706;2023-11-21T02:56:24;28.80;;;19.38;;
38653;SDS011;24413;52.450;20.706;2023-11-21T02:58:51;32.80;;;20.27;;
38653;SDS011;24413;52.450;20.706;2023-11-21T03:01:16;24.23;;;19.05;;
38653;SDS011;24413;52.450;20.706;2023-11-21T03:03:42;27.60;;;17.40;;
38653;SDS011;24413;52.450;20.706;2023-11-21T03:06:07;23.98;;;17.17;;
38653;SDS011;24413;52.450;20.706;2023-11-21T03:08:33;27.85;;;16.15;;
38653;SDS011;24413;52.450;20.706;2023-11-21T03:10:59;25.45;;;17.33;;
38653;SDS011;24413;52.450;20.706;2023-11-21T03:13:24;24.85;;;15.93;;
38653;SDS011;24413;52.450;20.706;2023-11-21T03:15:49;24.80;;;18.38;;
38653;SDS011;24413;52.450;20.706;2023-11-21T03:18:15;22.05;;;16.42;;
38653;SDS011;24413;52.450;20.706;2023-11-21T03:20:40;24.83;;;16.77;;
38653;SDS011;24413;52.450;20.706;2023-11-21T03:23:11;29.42;;;15.95;;
38653;SDS011;24413;52.450;20.706;2023-11-21T03:25:36;24.00;;;15.50;;
38653;SDS011;24413;52.450;20.706;2023-11-21T03:28:02;23.45;;;15.63;;
38653;SDS011;24413;52.450;20.706;2023-11-21T03:30:28;22.13;;;14.85;;
38653;SDS011;24413;52.450;20.706;2023-11-21T03:32:53;23.42;;;15.23;;
38653;SDS011;24413;52.450;20.706;2023-11-21T03:35:19;21.30;;;14.52;;
38653;SDS011;24413;52.450;20.706;2023-11-21T03:37:46;22.55;;;14.45;;
38653;SDS011;24413;52.450;20.706;2023-11-21T03:40:11;19.60;;;13.95;;
38653;SDS011;24413;52.450;20.706;2023-11-21T03:42:37;21.27;;;15.65;;
38653;SDS011;24413;52.450;20.706;2023-11-21T03:45:04;20.75;;;14.20;;
38653;SDS011;24413;52.450;20.706;2023-11-21T03:47:30;21.80;;;13.93;;
38653;SDS011;24413;52.450;20.706;2023-11-21T03:49:55;18.77;;;14.65;;
38653;SDS011;24413;52.450;20.706;2023-11-21T03:52:21;20.23;;;13.98;;
38653;SDS011;24413;52.450;20.706;2023-11-21T03:54:46;20.85;;;14.77;;
38653;SDS011;24413;52.450;20.706;2023-11-21T03:57:12;19.83;;;13.82;;
38653;SDS011;24413;52.450;20.706;2023-11-21T03:59:41;22.40;;;14.45;;
38653;SDS011;24413;52.450;20.706;2023-11-21T04:02:07;18.73;;;14.13;;
38653;SDS011;24413;52.450;20.706;2023-11-21T04:04:33;17.92;;;12.13;;
38653;SDS011;24413;52.450;20.706;2023-11-21T04:06:59;22.10;;;12.75;;
38653;SDS011;24413;52.450;20.706;2023-11-21T04:09:24;16.63;;;12.40;;
38653;SDS011;24413;52.450;20.706;2023-11-21T04:11:50;18.33;;;13.13;;
38653;SDS011;24413;52.450;20.706;2023-11-21T04:14:16;17.17;;;11.63;;
38653;SDS011;24413;52.450;20.706;2023-11-21T04:16:42;15.95;;;11.85;;
38653;SDS011;24413;52.450;20.706;2023-11-21T04:19:07;16.65;;;11.68;;
38653;SDS011;24413;52.450;20.706;2023-11-21T04:21:35;18.40;;;13.02;;
38653;SDS011;24413;52.450;20.706;2023-11-21T04:24:01;14.23;;;11.65;;
38653;SDS011;24413;52.450;20.706;2023-11-21T04:26:26;18.23;;;10.57;;
38653;SDS011;24413;52.450;20.706;2023-11-21T04:28:52;12.48;;;10.27;;
38653;SDS011;24413;52.450;20.706;2023-11-21T04:31:17;15.43;;;10.73;;
38653;SDS011;24413;52.450;20.706;2023-11-21T04:33:42;14.38;;;11.18;;
38653;SDS011;24413;52.450;20.706;2023-11-21T04:36:09;13.38;;;11.18;;
38653;SDS011;24413;52.450;20.706;2023-11-21T04:38:35;16.27;;;11.57;;
38653;SDS011;24413;52.450;20.706;2023-11-21T04:41:01;18.38;;;12.15;;
38653;SDS011;24413;52.450;20.706;2023-11-21T04:43:26;15.07;;;10.02;;
38653;SDS011;24413;52.450;20.706;2023-11-21T04:45:51;15.90;;;10.82;;
38653;SDS011;24413;52.450;20.706;2023-11-21T04:48:17;15.13;;;11.20;;
38653;SDS011;24413;52.450;20.706;2023-11-21T04:50:42;13.90;;;11.15;;
38653;SDS011;24413;52.450;20.706;2023-11-21T04:53:08;18.77;;;11.07;;
38653;SDS011;24413;52.450;20.706;2023-11-21T04:55:33;22.27;;;12.32;;
38653;SDS011;24413;52.450;20.706;2023-11-21T04:57:59;16.80;;;11.13;;
38653;SDS011;24413;52.450;20.706;2023-11-21T05:00:24;14.98;;;11.27;;
38653;SDS011;24413;52.450;20.706;2023-11-21T05:02:50;20.08;;;12.20;;
38653;SDS011;24413;52.450;20.706;2023-11-21T05:05:15;20.02;;;12.27;;
38653;SDS011;24413;52.450;20.706;2023-11-21T05:07:41;17.05;;;9.68;;
38653;SDS011;24413;52.450;20.706;2023-11-21T05:10:07;17.85;;;11.38;;
38653;SDS011;24413;52.450;20.706;2023-11-21T05:12:36;15.20;;;11.93;;
38653;SDS011;24413;52.450;20.706;2023-11-21T05:15:04;17.85;;;11.73;;
38653;SDS011;24413;52.450;20.706;2023-11-21T05:17:37;15.88;;;12.43;;
38653;SDS011;24413;52.450;20.706;2023-11-21T05:20:12;16.65;;;11.32;;
38653;SDS011;24413;52.450;20.706;2023-11-21T05:22:45;16.10;;;11.13;;
38653;SDS011;24413;52.450;20.706;2023-11-21T05:25:11;20.63;;;13.20;;
38653;SDS011;24413;52.450;20.706;2023-11-21T05:27:36;17.95;;;13.95;;
38653;SDS011;24413;52.450;20.706;2023-11-21T05:30:02;16.58;;;12.02;;
38653;SDS011;24413;52.450;20.706;2023-11-21T05:32:34;17.77;;;11.60;;
38653;SDS011;24413;52.450;20.706;2023-11-21T05:34:59;15.80;;;10.68;;
38653;SDS011;24413;52.450;20.706;2023-11-21T05:37:25;17.92;;;12.60;;
38653;SDS011;24413;52.450;20.706;2023-11-21T05:39:52;16.55;;;11.98;;
38653;SDS011;24413;52.450;20.706;2023-11-21T05:42:18;18.20;;;13.07;;
38653;SDS011;24413;52.450;20.706;2023-11-21T05:44:44;18.67;;;11.93;;
38653;SDS011;24413;52.450;20.706;2023-11-21T05:47:09;19.05;;;12.23;;
38653;SDS011;24413;52.450;20.706;2023-11-21T05:49:35;16.40;;;11.38;;
38653;SDS011;24413;52.450;20.706;2023-11-21T05:52:01;25.58;;;13.70;;
38653;SDS011;24413;52.450;20.706;2023-11-21T05:54:27;20.30;;;12.48;;
38653;SDS011;24413;52.450;20.706;2023-11-21T05:56:54;18.23;;;12.38;;
38653;SDS011;24413;52.450;20.706;2023-11-21T05:59:19;24.40;;;14.45;;
38653;SDS011;24413;52.450;20.706;2023-11-21T06:01:45;22.90;;;14.10;;
38653;SDS011;24413;52.450;20.706;2023-11-21T06:04:11;22.13;;;14.57;;
38653;SDS011;24413;52.450;20.706;2023-11-21T06:06:37;23.88;;;12.32;;
38653;SDS011;24413;52.450;20.706;2023-11-21T06:09:04;17.33;;;11.98;;
38653;SDS011;24413;52.450;20.706;2023-11-21T06:11:31;24.50;;;11.93;;
38653;SDS011;24413;52.450;20.706;2023-11-21T06:13:56;19.92;;;12.77;;
38653;SDS011;24413;52.450;20.706;2023-11-21T06:16:22;17.95;;;11.63;;
38653;SDS011;24413;52.450;20.706;2023-11-21T06:18:47;15.43;;;11.38;;
38653;SDS011;24413;52.450;20.706;2023-11-21T06:21:13;14.65;;;10.48;;
38653;SDS011;24413;52.450;20.706;2023-11-21T06:23:38;17.08;;;12.23;;
38653;SDS011;24413;52.450;20.706;2023-11-21T06:26:04;17.92;;;11.60;;
38653;SDS011;24413;52.450;20.706;2023-11-21T06:28:31;18.38;;;11.77;;
38653;SDS011;24413;52.450;20.706;2023-11-21T06:30:56;19.33;;;13.32;;
38653;SDS011;24413;52.450;20.706;2023-11-21T06:33:23;22.17;;;13.75;;
38653;SDS011;24413;52.450;20.706;2023-11-21T06:35:48;20.35;;;14.27;;
38653;SDS011;24413;52.450;20.706;2023-11-21T06:38:14;18.88;;;13.02;;
38653;SDS011;24413;52.450;20.706;2023-11-21T06:40:40;19.05;;;13.02;;
38653;SDS011;24413;52.450;20.706;2023-11-21T06:43:06;18.13;;;12.05;;
38653;SDS011;24413;52.450;20.706;2023-11-21T06:45:32;20.08;;;12.95;;
38653;SDS011;24413;52.450;20.706;2023-11-21T06:47:59;24.60;;;13.32;;
38653;SDS011;24413;52.450;20.706;2023-11-21T06:50:24;18.60;;;13.85;;
38653;SDS011;24413;52.450;20.706;2023-11-21T06:52:50;19.83;;;14.13;;
38653;SDS011;24413;52.450;20.706;2023-11-21T06:55:16;19.98;;;12.57;;
38653;SDS011;24413;52.450;20.706;2023-11-21T06:57:41;20.00;;;13.98;;
38653;SDS011;24413;52.450;20.706;2023-11-21T07:00:10;18.67;;;13.02;;
38653;SDS011;24413;52.450;20.706;2023-11-21T07:02:36;18.73;;;13.30;;
38653;SDS011;24413;52.450;20.706;2023-11-21T07:05:02;20.08;;;13.10;;
38653;SDS011;24413;52.450;20.706;2023-11-21T07:07:27;22.23;;;14.63;;
38653;SDS011;24413;52.450;20.706;2023-11-21T07:09:53;19.13;;;13.63;;
38653;SDS011;24413;52.450;20.706;2023-11-21T07:12:18;21.13;;;13.20;;
38653;SDS011;24413;52.450;20.706;2023-11-21T07:14:44;18.80;;;13.43;;
38653;SDS011;24413;52.450;20.706;2023-11-21T07:17:10;20.92;;;13.57;;
38653;SDS011;24413;52.450;20.706;2023-11-21T07:19:37;22.45;;;15.40;;
38653;SDS011;24413;52.450;20.706;2023-11-21T07:22:03;21.60;;;14.40;;
38653;SDS011;24413;52.450;20.706;2023-11-21T07:24:29;23.63;;;15.40;;
38653;SDS011;24413;52.450;20.706;2023-11-21T07:26:56;20.48;;;15.30;;
38653;SDS011;24413;52.450;20.706;2023-11-21T07:29:25;23.15;;;15.07;;
38653;SDS011;24413;52.450;20.706;2023-11-21T07:31:52;25.67;;;18.60;;
38653;SDS011;24413;52.450;20.706;2023-11-21T07:34:18;23.88;;;16.67;;
38653;SDS011;24413;52.450;20.706;2023-11-21T07:36:45;22.42;;;15.40;;
38653;SDS011;24413;52.450;20.706;2023-11-21T07:39:10;24.65;;;16.58;;
38653;SDS011;24413;52.450;20.706;2023-11-21T07:41:35;28.23;;;16.85;;
38653;SDS011;24413;52.450;20.706;2023-11-21T07:44:01;23.42;;;16.48;;
38653;SDS011;24413;52.450;20.706;2023-11-21T07:46:27;23.70;;;16.55;;
38653;SDS011;24413;52.450;20.706;2023-11-21T07:48:52;25.85;;;16.83;;
38653;SDS011;24413;52.450;20.706;2023-11-21T07:51:18;24.92;;;16.80;;
38653;SDS011;24413;52.450;20.706;2023-11-21T07:53:43;31.75;;;19.92;;
38653;SDS011;24413;52.450;20.706;2023-11-21T07:56:09;30.83;;;17.67;;
38653;SDS011;24413;52.450;20.706;2023-11-21T07:58:35;28.27;;;18.20;;
38653;SDS011;24413;52.450;20.706;2023-11-21T08:01:02;25.95;;;16.80;;
38653;SDS011;24413;52.450;20.706;2023-11-21T08:03:28;27.40;;;17.10;;
38653;SDS011;24413;52.450;20.706;2023-11-21T08:05:57;21.17;;;14.15;;
38653;SDS011;24413;52.450;20.706;2023-11-21T08:08:23;24.25;;;15.82;;
38653;SDS011;24413;52.450;20.706;2023-11-21T08:10:49;26.52;;;16.02;;
38653;SDS011;24413;52.450;20.706;2023-11-21T08:13:24;26.95;;;16.05;;
38653;SDS011;24413;52.450;20.706;2023-11-21T08:15:59;27.35;;;18.13;;
38653;SDS011;24413;52.450;20.706;2023-11-21T08:18:28;22.67;;;16.23;;
38653;SDS011;24413;52.450;20.706;2023-11-21T08:20:54;28.15;;;17.92;;
38653;SDS011;24413;52.450;20.706;2023-11-21T08:23:20;27.63;;;17.50;;
38653;SDS011;24413;52.450;20.706;2023-11-21T08:25:46;26.73;;;21.13;;
38653;SDS011;24413;52.450;20.706;2023-11-21T08:28:11;29.98;;;21.27;;
38653;SDS011;24413;52.450;20.706;2023-11-21T08:30:39;25.00;;;16.95;;
38653;SDS011;24413;52.450;20.706;2023-11-21T08:33:06;20.77;;;15.07;;
38653;SDS011;24413;52.450;20.706;2023-11-21T08:35:32;23.65;;;14.88;;
38653;SDS011;24413;52.450;20.706;2023-11-21T08:37:57;22.08;;;15.00;;
38653;SDS011;24413;52.450;20.706;2023-11-21T08:40:22;22.85;;;14.75;;
38653;SDS011;24413;52.450;20.706;2023-11-21T08:42:48;23.73;;;16.50;;
38653;SDS011;24413;52.450;20.706;2023-11-21T08:45:14;27.02;;;18.13;;
38653;SDS011;24413;52.450;20.706;2023-11-21T08:47:40;28.02;;;17.80;;
38653;SDS011;24413;52.450;20.706;2023-11-21T08:50:08;28.98;;;17.55;;
38653;SDS011;24413;52.450;20.706;2023-11-21T08:52:34;29.92;;;18.50;;
38653;SDS011;24413;52.450;20.706;2023-11-21T08:55:00;23.38;;;16.00;;
38653;SDS011;24413;52.450;20.706;2023-11-21T08:57:32;23.30;;;17.98;;
38653;SDS011;24413;52.450;20.706;2023-11-21T09:00:01;29.58;;;16.75;;
38653;SDS011;24413;52.450;20.706;2023-11-21T09:02:27;25.13;;;17.17;;
38653;SDS011;24413;52.450;20.706;2023-11-21T09:04:53;26.33;;;16.00;;
38653;SDS011;24413;52.450;20.706;2023-11-21T09:07:18;24.77;;;16.52;;
38653;SDS011;24413;52.450;20.706;2023-11-21T09:09:45;26.00;;;15.30;;
38653;SDS011;24413;52.450;20.706;2023-11-21T09:12:14;23.35;;;14.50;;
38653;SDS011;24413;52.450;20.706;2023-11-21T09:14:40;23.00;;;15.10;;
38653;SDS011;24413;52.450;20.706;2023-11-21T09:17:05;25.67;;;16.67;;
38653;SDS011;24413;52.450;20.706;2023-11-21T09:19:38;25.40;;;15.35;;
38653;SDS011;24413;52.450;20.706;2023-11-21T09:22:04;24.95;;;16.13;;
38653;SDS011;24413;52.450;20.706;2023-11-21T09:24:30;26.50;;;15.85;;
38653;SDS011;24413;52.450;20.706;2023-11-21T09:26:56;25.98;;;15.48;;
38653;SDS011;24413;52.450;20.706;2023-11-21T09:29:21;25.63;;;14.75;;
38653;SDS011;24413;52.450;20.706;2023-11-21T09:31:47;31.05;;;17.63;;
38653;SDS011;24413;52.450;20.706;2023-11-21T09:34:13;39.85;;;20.17;;
38653;SDS011;24413;52.450;20.706;2023-11-21T09:36:38;34.80;;;20.50;;
38653;SDS011;24413;52.450;20.706;2023-11-21T09:39:04;30.35;;;19.25;;
38653;SDS011;24413;52.450;20.706;2023-11-21T09:41:39;35.05;;;19.23;;
38653;SDS011;24413;52.450;20.706;2023-11-21T09:44:09;29.90;;;17.60;;
38653;SDS011;24413;52.450;20.706;2023-11-21T09:46:39;31.25;;;17.50;;
38653;SDS011;24413;52.450;20.706;2023-11-21T09:49:05;28.35;;;17.45;;
38653;SDS011;24413;52.450;20.706;2023-11-21T09:51:37;26.75;;;15.73;;
38653;SDS011;24413;52.450;20.706;2023-11-21T09:54:05;24.13;;;16.13;;
38653;SDS011;24413;52.450;20.706;2023-11-21T09:56:34;30.58;;;18.23;;
38653;SDS011;24413;52.450;20.706;2023-11-21T09:59:00;25.45;;;16.52;;
38653;SDS011;24413;52.450;20.706;2023-11-21T10:01:31;25.02;;;17.23;;
38653;SDS011;24413;52.450;20.706;2023-11-21T10:03:57;31.17;;;17.60;;
38653;SDS011;24413;52.450;20.706;2023-11-21T10:06:24;35.92;;;19.13;;
38653;SDS011;24413;52.450;20.706;2023-11-21T10:08:52;34.40;;;19.02;;
38653;SDS011;24413;52.450;20.706;2023-11-21T10:11:18;29.27;;;18.95;;
38653;SDS011;24413;52.450;20.706;2023-11-21T10:13:44;29.58;;;17.95;;
38653;SDS011;24413;52.450;20.706;2023-11-21T10:16:12;24.60;;;16.17;;
38653;SDS011;24413;52.450;20.706;2023-11-21T10:18:41;27.50;;;17.00;;
38653;SDS011;24413;52.450;20.706;2023-11-21T10:21:07;34.75;;;18.00;;
38653;SDS011;24413;52.450;20.706;2023-11-21T10:23:34;35.67;;;19.70;;
38653;SDS011;24413;52.450;20.706;2023-11-21T10:25:59;32.85;;;20.42;;
38653;SDS011;24413;52.450;20.706;2023-11-21T10:28:26;25.13;;;16.65;;
38653;SDS011;24413;52.450;20.706;2023-11-21T10:30:51;29.33;;;18.52;;
38653;SDS011;24413;52.450;20.706;2023-11-21T10:33:17;25.48;;;18.00;;
38653;SDS011;24413;52.450;20.706;2023-11-21T10:35:52;28.55;;;17.85;;
38653;SDS011;24413;52.450;20.706;2023-11-21T10:38:20;29.15;;;18.27;;
38653;SDS011;24413;52.450;20.706;2023-11-21T10:40:51;30.77;;;17.85;;
38653;SDS011;24413;52.450;20.706;2023-11-21T10:43:17;26.23;;;16.30;;
38653;SDS011;24413;52.450;20.706;2023-11-21T10:45:43;26.90;;;17.00;;
38653;SDS011;24413;52.450;20.706;2023-11-21T10:48:10;27.25;;;17.13;;
38653;SDS011;24413;52.450;20.706;2023-11-21T10:50:37;28.33;;;18.63;;
38653;SDS011;24413;52.450;20.706;2023-11-21T10:53:03;30.55;;;16.73;;
38653;SDS011;24413;52.450;20.706;2023-11-21T10:55:29;25.20;;;17.20;;
38653;SDS011;24413;52.450;20.706;2023-11-21T10:57:57;24.23;;;15.85;;
38653;SDS011;24413;52.450;20.706;2023-11-21T11:00:24;25.45;;;18.33;;
38653;SDS011;24413;52.450;20.706;2023-11-21T11:02:50;24.52;;;15.32;;
38653;SDS011;24413;52.450;20.706;2023-11-21T11:05:19;26.33;;;16.65;;
38653;SDS011;24413;52.450;20.706;2023-11-21T11:07:45;30.10;;;16.23;;
38653;SDS011;24413;52.450;20.706;2023-11-21T11:10:13;24.40;;;16.83;;
38653;SDS011;24413;52.450;20.706;2023-11-21T11:12:39;37.22;;;19.15;;
38653;SDS011;24413;52.450;20.706;2023-11-21T11:15:06;36.55;;;21.17;;
38653;SDS011;24413;52.450;20.706;2023-11-21T11:17:34;36.72;;;18.52;;
38653;SDS011;24413;52.450;20.706;2023-11-21T11:20:03;28.95;;;18.23;;
38653;SDS011;24413;52.450;20.706;2023-11-21T11:22:37;30.58;;;18.42;;
38653;SDS011;24413;52.450;20.706;2023-11-21T11:27:47;25.83;;;17.00;;
38653;SDS011;24413;52.450;20.706;2023-11-21T11:30:37;30.00;;;18.85;;
38653;SDS011;24413;52.450;20.706;2023-11-21T11:38:24;27.55;;;17.77;;
38653;SDS011;24413;52.450;20.706;2023-11-21T11:40:53;28.70;;;17.70;;
38653;SDS011;24413;52.450;20.706;2023-11-21T11:43:26;26.55;;;16.60;;
38653;SDS011;24413;52.450;20.706;2023-11-21T11:45:51;27.95;;;16.55;;
38653;SDS011;24413;52.450;20.706;2023-11-21T11:48:25;21.08;;;14.10;;
38653;SDS011;24413;52.450;20.706;2023-11-21T11:53:35;21.90;;;15.07;;
38653;SDS011;24413;52.450;20.706;2023-11-21T11:58:57;28.77;;;17.92;;
38653;SDS011;24413;52.450;20.706;2023-11-21T12:01:25;26.38;;;15.20;;
38653;SDS011;24413;52.450;20.706;2023-11-21T12:06:59;31.92;;;17.85;;
38653;SDS011;24413;52.450;20.706;2023-11-21T12:09:27;29.95;;;17.33;;
38653;SDS011;24413;52.450;20.706;2023-11-21T12:11:55;26.33;;;17.98;;
38653;SDS011;24413;52.450;20.706;2023-11-21T12:14:21;39.63;;;21.70;;
38653;SDS011;24413;52.450;20.706;2023-11-21T12:16:48;33.55;;;18.58;;
38653;SDS011;24413;52.450;20.706;2023-11-21T12:19:13;32.38;;;19.00;;
38653;SDS011;24413;52.450;20.706;2023-11-21T12:21:39;24.73;;;16.95;;
38653;SDS011;24413;52.450;20.706;2023-11-21T12:24:09;33.10;;;18.58;;
38653;SDS011;24413;52.450;20.706;2023-11-21T12:26:35;28.27;;;16.38;;
38653;SDS011;24413;52.450;20.706;2023-11-21T12:29:01;29.77;;;16.83;;
38653;SDS011;24413;52.450;20.706;2023-11-21T12:31:29;25.42;;;15.77;;
38653;SDS011;24413;52.450;20.706;2023-11-21T12:33:55;23.40;;;15.18;;
38653;SDS011;24413;52.450;20.706;2023-11-21T12:36:21;26.92;;;16.50;;
38653;SDS011;24413;52.450;20.706;2023-11-21T12:38:47;27.23;;;16.67;;
38653;SDS011;24413;52.450;20.706;2023-11-21T12:41:12;23.80;;;14.35;;
38653;SDS011;24413;52.450;20.706;2023-11-21T12:43:38;24.80;;;16.77;;
38653;SDS011;24413;52.450;20.706;2023-11-21T12:46:07;30.15;;;17.10;;
38653;SDS011;24413;52.450;20.706;2023-11-21T12:48:37;26.45;;;16.95;;
38653;SDS011;24413;52.450;20.706;2023-11-21T12:51:04;27.33;;;17.45;;
38653;SDS011;24413;52.450;20.706;2023-11-21T12:53:30;30.35;;;18.23;;
38653;SDS011;24413;52.450;20.706;2023-11-21T12:56:01;30.55;;;18.10;;
38653;SDS011;24413;52.450;20.706;2023-11-21T12:58:28;32.13;;;19.10;;
38653;SDS011;24413;52.450;20.706;2023-11-21T13:00:54;28.40;;;18.67;;
38653;SDS011;24413;52.450;20.706;2023-11-21T13:03:22;30.17;;;18.70;;
38653;SDS011;24413;52.450;20.706;2023-11-21T13:05:50;30.60;;;17.85;;
38653;SDS011;24413;52.450;20.706;2023-11-21T13:08:19;30.77;;;18.92;;
38653;SDS011;24413;52.450;20.706;2023-11-21T13:10:48;36.63;;;18.50;;
38653;SDS011;24413;52.450;20.706;2023-11-21T13:13:15;24.50;;;17.15;;
38653;SDS011;24413;52.450;20.706;2023-11-21T13:16:02;25.23;;;16.95;;
38653;SDS011;24413;52.450;20.706;2023-11-21T13:18:30;35.05;;;18.00;;
38653;SDS011;24413;52.450;20.706;2023-11-21T13:20:57;26.40;;;16.70;;
38653;SDS011;24413;52.450;20.706;2023-11-21T13:23:24;27.67;;;17.92;;
38653;SDS011;24413;52.450;20.706;2023-11-21T13:25:51;31.73;;;17.27;;
38653;SDS011;24413;52.450;20.706;2023-11-21T13:28:17;32.38;;;19.90;;
38653;SDS011;24413;52.450;20.706;2023-11-21T13:30:46;31.70;;;17.77;;
38653;SDS011;24413;52.450;20.706;2023-11-21T13:33:13;28.30;;;17.92;;
38653;SDS011;24413;52.450;20.706;2023-11-21T13:35:43;29.98;;;17.27;;
38653;SDS011;24413;52.450;20.706;2023-11-21T13:38:16;35.92;;;20.42;;
38653;SDS011;24413;52.450;20.706;2023-11-21T13:40:46;29.33;;;18.13;;
38653;SDS011;24413;52.450;20.706;2023-11-21T13:43:18;28.77;;;17.83;;
38653;SDS011;24413;52.450;20.706;2023-11-21T13:45:46;31.02;;;16.70;;
38653;SDS011;24413;52.450;20.706;2023-11-21T13:48:12;29.00;;;18.67;;
38653;SDS011;24413;52.450;20.706;2023-11-21T13:50:53;23.45;;;16.95;;
38653;SDS011;24413;52.450;20.706;2023-11-21T13:53:24;23.80;;;16.00;;
38653;SDS011;24413;52.450;20.706;2023-11-21T13:55:50;27.05;;;16.70;;
38653;SDS011;24413;52.450;20.706;2023-11-21T13:58:19;24.55;;;17.63;;
38653;SDS011;24413;52.450;20.706;2023-11-21T14:00:48;30.67;;;18.27;;
38653;SDS011;24413;52.450;20.706;2023-11-21T14:03:21;28.67;;;18.48;;
38653;SDS011;24413;52.450;20.706;2023-11-21T14:05:48;27.83;;;17.83;;
38653;SDS011;24413;52.450;20.706;2023-11-21T14:08:22;23.95;;;16.50;;
38653;SDS011;24413;52.450;20.706;2023-11-21T14:10:53;30.67;;;18.70;;
38653;SDS011;24413;52.450;20.706;2023-11-21T14:13:22;29.00;;;17.58;;
38653;SDS011;24413;52.450;20.706;2023-11-21T14:15:49;24.85;;;15.20;;
38653;SDS011;24413;52.450;20.706;2023-11-21T14:18:19;23.02;;;14.95;;
38653;SDS011;24413;52.450;20.706;2023-11-21T14:20:52;25.58;;;15.77;;
38653;SDS011;24413;52.450;20.706;2023-11-21T14:23:18;26.45;;;15.52;;